createdAt,value
2023-03-28T00:01:40.182Z,40.80
2023-03-28T00:03:42.451Z,40.80
2023-03-28T00:05:51.318Z,40.80
2023-03-28T00:07:53.722Z,40.80
2023-03-28T00:09:57.348Z,40.70
2023-03-28T00:11:59.012Z,40.70
2023-03-28T00:14:01.410Z,41.40
2023-03-28T00:16:06.939Z,40.70
2023-03-28T00:18:11.572Z,40.80
2023-03-28T00:20:14.464Z,40.70
2023-03-28T00:22:16.236Z,40.70
2023-03-28T00:24:21.281Z,40.70
2023-03-28T00:26:24.918Z,40.80
2023-03-28T00:28:26.717Z,40.80
2023-03-28T00:30:28.494Z,40.70
2023-03-28T00:32:30.189Z,40.70
2023-03-28T00:34:31.896Z,40.70
2023-03-28T00:36:34.017Z,40.70
2023-03-28T00:38:35.951Z,40.70
2023-03-28T00:40:38.674Z,40.80
2023-03-28T00:42:43.554Z,40.70
2023-03-28T00:44:49.494Z,40.70
2023-03-28T00:46:51.626Z,40.70
2023-03-28T00:49:15.726Z,40.70
2023-03-28T00:51:20.328Z,40.60
2023-03-28T00:53:26.274Z,40.60
2023-03-28T00:55:41.869Z,40.70
2023-03-28T00:57:46.166Z,40.60
2023-03-28T00:59:47.814Z,40.70
2023-03-28T01:01:50.013Z,40.60
2023-03-28T01:04:02.192Z,40.60
2023-03-28T01:06:04.979Z,40.60
2023-03-28T01:08:14.561Z,40.60
2023-03-28T01:10:16.365Z,40.60
2023-03-28T01:12:19.820Z,40.70
2023-03-28T01:14:23.847Z,40.70
2023-03-28T01:16:26.674Z,40.70
2023-03-28T01:18:30.220Z,40.70
2023-03-28T01:20:42.300Z,40.70
2023-03-28T01:22:59.025Z,40.70
2023-03-28T01:25:06.708Z,40.70
2023-03-28T01:27:20.581Z,40.70
2023-03-28T01:29:42.593Z,40.70
2023-03-28T01:32:28.681Z,40.70
2023-03-28T01:35:00.336Z,40.60
2023-03-28T01:37:36.720Z,40.70
2023-03-28T01:40:01.561Z,41.30
2023-03-28T01:42:21.971Z,40.60
2023-03-28T01:44:42.487Z,40.60
2023-03-28T01:46:54.586Z,40.60
2023-03-28T01:49:11.802Z,40.60
2023-03-28T01:51:29.045Z,40.60
2023-03-28T01:54:08.128Z,40.60
2023-03-28T01:56:31.221Z,40.60
2023-03-28T01:58:46.509Z,40.50
2023-03-28T02:01:17.289Z,40.60
2023-03-28T02:03:28.506Z,40.50
2023-03-28T02:05:32.673Z,40.50
2023-03-28T02:07:35.044Z,40.50
2023-03-28T02:09:39.092Z,40.50
2023-03-28T02:11:41.592Z,40.50
2023-03-28T02:14:04.342Z,40.50
2023-03-28T02:16:08.155Z,40.50
2023-03-28T02:18:17.976Z,40.50
2023-03-28T02:20:24.744Z,40.50
2023-03-28T02:22:44.450Z,40.50
2023-03-28T02:24:50.455Z,40.50
2023-03-28T02:26:53.494Z,40.40
2023-03-28T02:28:57.903Z,40.40
2023-03-28T02:31:01.616Z,41.10
2023-03-28T02:33:06.060Z,40.40
2023-03-28T02:35:09.036Z,40.30
2023-03-28T02:37:54.872Z,40.40
2023-03-28T02:40:34.616Z,40.40
2023-03-28T02:42:52.910Z,40.40
2023-03-28T02:45:26.507Z,40.40
2023-03-28T02:47:47.153Z,40.30
2023-03-28T02:50:13.138Z,40.30
2023-03-28T02:52:36.939Z,40.30
2023-03-28T02:55:18.469Z,40.40
2023-03-28T02:57:25.891Z,40.30
2023-03-28T02:59:44.238Z,40.30
2023-03-28T03:01:46.410Z,40.30
2023-03-28T03:03:49.949Z,40.30
2023-03-28T03:05:51.755Z,40.30
2023-03-28T03:07:53.426Z,40.30
2023-03-28T03:09:55.497Z,40.30
2023-03-28T03:11:57.162Z,40.30
2023-03-28T03:14:00.188Z,40.30
2023-03-28T03:16:02.608Z,40.30
2023-03-28T03:18:04.787Z,40.30
2023-03-28T03:20:07.388Z,40.30
2023-03-28T03:22:09.429Z,40.30
2023-03-28T03:24:22.251Z,40.30
2023-03-28T03:26:23.926Z,40.30
2023-03-28T03:28:25.614Z,40.30
2023-03-28T03:30:27.652Z,40.30
2023-03-28T03:32:29.517Z,40.20
2023-03-28T03:34:33.904Z,40.20
2023-03-28T03:36:35.529Z,40.30
2023-03-28T03:38:37.150Z,40.30
2023-03-28T03:40:38.818Z,40.30
2023-03-28T03:42:40.667Z,40.20
2023-03-28T03:44:42.914Z,40.00
2023-03-28T03:46:44.688Z,39.80
2023-03-28T03:48:49.440Z,39.70
2023-03-28T03:50:51.457Z,39.50
2023-03-28T03:52:53.195Z,39.40
2023-03-28T03:54:54.885Z,39.20
2023-03-28T03:56:56.565Z,39.10
2023-03-28T03:58:58.489Z,39.10
2023-03-28T04:01:00.338Z,39.00
2023-03-28T04:03:02.501Z,39.00
2023-03-28T04:05:04.527Z,39.00
2023-03-28T04:07:06.473Z,38.90
2023-03-28T04:09:08.624Z,38.90
2023-03-28T04:11:10.652Z,38.90
2023-03-28T04:13:12.305Z,38.80
2023-03-28T04:15:13.903Z,38.80
2023-03-28T04:17:16.232Z,38.90
2023-03-28T04:19:19.028Z,38.80
2023-03-28T04:21:25.782Z,38.90
2023-03-28T04:23:27.741Z,39.60
2023-03-28T04:25:29.786Z,38.80
2023-03-28T04:27:31.467Z,38.80
2023-03-28T04:29:33.267Z,38.90
2023-03-28T04:31:39.760Z,38.80
2023-03-28T04:33:41.711Z,38.90
2023-03-28T04:35:43.472Z,38.90
2023-03-28T04:37:45.176Z,38.80
2023-03-28T04:39:53.892Z,38.80
2023-03-28T04:41:56.225Z,38.80
2023-03-28T04:43:58.155Z,38.90
2023-03-28T04:46:00.071Z,39.30
2023-03-28T04:48:01.965Z,39.80
2023-03-28T04:50:04.025Z,40.20
2023-03-28T04:52:06.664Z,39.80
2023-03-28T04:54:08.334Z,39.40
2023-03-28T04:56:13.937Z,39.50
2023-03-28T04:58:16.860Z,39.60
2023-03-28T05:00:18.798Z,39.40
2023-03-28T05:02:20.577Z,39.50
2023-03-28T05:04:23.561Z,39.20
2023-03-28T05:06:26.015Z,37.60
2023-03-28T05:08:27.815Z,36.70
2023-03-28T05:10:29.572Z,35.50
2023-03-28T05:12:31.233Z,36.00
2023-03-28T05:14:33.498Z,36.60
2023-03-28T05:16:35.492Z,36.90
2023-03-28T05:18:37.191Z,37.20
2023-03-28T05:20:38.827Z,37.40
2023-03-28T05:22:41.616Z,37.80
2023-03-28T05:24:43.224Z,38.60
2023-03-28T05:26:44.957Z,38.60
2023-03-28T05:28:46.762Z,38.90
2023-03-28T05:30:48.421Z,39.00
2023-03-28T05:32:50.094Z,39.00
2023-03-28T05:34:51.748Z,39.00
2023-03-28T05:36:53.406Z,39.20
2023-03-28T05:38:55.050Z,39.10
2023-03-28T05:40:57.356Z,39.20
2023-03-28T05:42:59.220Z,39.30
2023-03-28T05:45:00.898Z,39.30
2023-03-28T05:47:02.540Z,39.40
2023-03-28T05:49:04.324Z,39.40
2023-03-28T05:51:06.287Z,39.40
2023-03-28T05:53:08.025Z,39.50
2023-03-28T05:55:09.883Z,39.50
2023-03-28T05:57:11.607Z,39.70
2023-03-28T05:59:13.244Z,38.70
2023-03-28T06:01:18.005Z,39.20
2023-03-28T06:03:19.941Z,39.30
2023-03-28T06:05:21.734Z,39.30
2023-03-28T06:07:35.213Z,39.30
2023-03-28T06:09:41.812Z,39.30
2023-03-28T06:11:44.003Z,39.30
2023-03-28T06:13:45.895Z,39.30
2023-03-28T06:15:47.615Z,39.30
2023-03-28T06:17:49.278Z,39.30
2023-03-28T06:19:51.666Z,39.20
2023-03-28T06:21:53.962Z,39.20
2023-03-28T06:23:55.848Z,39.30
2023-03-28T06:25:57.608Z,39.10
2023-03-28T06:27:59.334Z,39.10
2023-03-28T06:30:01.232Z,39.10
2023-03-28T06:32:04.050Z,39.10
2023-03-28T06:34:05.703Z,39.10
2023-03-28T06:36:11.506Z,39.10
2023-03-28T06:38:13.266Z,39.10
2023-03-28T06:40:15.194Z,39.10
2023-03-28T06:42:17.328Z,39.00
2023-03-28T06:44:19.016Z,39.00
2023-03-28T06:46:20.712Z,39.00
2023-03-28T06:48:22.455Z,39.00
2023-03-28T06:50:24.119Z,38.90
2023-03-28T06:52:25.824Z,38.90
2023-03-28T06:54:27.499Z,38.90
2023-03-28T06:56:29.600Z,38.90
2023-03-28T06:58:31.593Z,38.80
2023-03-28T07:00:33.368Z,38.90
2023-03-28T07:02:35.324Z,38.80
2023-03-28T07:04:37.396Z,38.80
2023-03-28T07:06:39.060Z,38.80
2023-03-28T07:08:40.698Z,38.70
2023-03-28T07:10:42.780Z,38.70
2023-03-28T07:12:44.450Z,38.70
2023-03-28T07:14:47.542Z,38.70
2023-03-28T07:16:49.223Z,38.70
2023-03-28T07:18:51.088Z,38.70
2023-03-28T07:21:04.074Z,38.60
2023-03-28T07:23:06.888Z,38.60
2023-03-28T07:25:08.822Z,38.60
2023-03-28T07:27:15.326Z,38.80
2023-03-28T07:29:18.049Z,39.00
2023-03-28T07:31:21.079Z,39.00
2023-03-28T07:33:29.076Z,39.10
2023-03-28T07:35:39.603Z,39.00
2023-03-28T07:37:41.241Z,39.50
2023-03-28T07:39:43.888Z,38.90
2023-03-28T07:41:45.710Z,38.90
2023-03-28T07:43:47.343Z,38.90
2023-03-28T07:45:49.031Z,38.80
2023-03-28T07:47:50.803Z,38.80
2023-03-28T07:49:52.434Z,38.80
2023-03-28T07:51:54.129Z,38.70
2023-03-28T07:53:56.151Z,37.80
2023-03-28T07:55:58.015Z,36.40
2023-03-28T07:58:00.143Z,36.90
2023-03-28T08:00:01.947Z,37.60
2023-03-28T08:02:03.727Z,38.10
2023-03-28T08:04:06.033Z,38.20
2023-03-28T08:06:20.598Z,38.20
2023-03-28T08:08:31.170Z,38.30
2023-03-28T08:10:33.206Z,38.30
2023-03-28T08:12:34.903Z,39.00
2023-03-28T08:14:36.591Z,38.30
2023-03-28T08:16:38.512Z,38.30
2023-03-28T08:18:40.194Z,38.30
2023-03-28T08:20:41.800Z,38.30
2023-03-28T08:22:43.461Z,38.30
2023-03-28T08:24:45.597Z,38.20
2023-03-28T08:26:48.763Z,38.20
2023-03-28T08:28:51.313Z,38.20
2023-03-28T08:30:53.071Z,38.20
2023-03-28T08:32:54.873Z,37.80
2023-03-28T08:34:57.861Z,37.90
2023-03-28T08:36:59.876Z,38.10
2023-03-28T08:39:04.262Z,38.10
2023-03-28T08:41:09.046Z,38.00
2023-03-28T08:43:29.316Z,38.00
2023-03-28T08:45:57.682Z,38.00
2023-03-28T08:48:11.286Z,37.90
2023-03-28T08:50:37.767Z,38.00
2023-03-28T08:52:40.953Z,38.00
2023-03-28T08:55:16.012Z,37.90
2023-03-28T08:57:23.577Z,37.90
2023-03-28T09:00:15.004Z,37.90
2023-03-28T09:02:22.076Z,37.90
2023-03-28T09:04:35.025Z,37.90
2023-03-28T09:06:41.042Z,37.90
2023-03-28T09:09:11.909Z,37.90
2023-03-28T09:11:48.968Z,37.90
2023-03-28T09:14:23.937Z,37.80
2023-03-28T09:16:31.783Z,37.80
2023-03-28T09:18:37.192Z,37.70
2023-03-28T09:20:51.008Z,37.70
2023-03-28T09:23:01.294Z,37.70
2023-03-28T09:25:30.584Z,37.90
2023-03-28T09:27:46.168Z,38.00
2023-03-28T09:29:48.402Z,37.80
2023-03-28T09:31:56.377Z,37.70
2023-03-28T09:34:00.167Z,37.70
2023-03-28T09:36:03.208Z,37.90
2023-03-28T09:38:12.938Z,38.20
2023-03-28T09:40:27.356Z,38.40
2023-03-28T09:43:04.050Z,38.30
2023-03-28T09:45:30.654Z,38.60
2023-03-28T09:47:32.905Z,38.60
2023-03-28T09:49:34.606Z,38.40
2023-03-28T09:51:37.553Z,39.50
2023-03-28T09:53:39.342Z,38.10
2023-03-28T09:55:42.897Z,37.90
2023-03-28T09:58:09.184Z,37.80
2023-03-28T10:00:21.403Z,37.70
2023-03-28T10:02:32.401Z,37.70
2023-03-28T10:04:36.880Z,37.80
2023-03-28T10:06:40.305Z,37.80
2023-03-28T10:08:42.361Z,37.80
2023-03-28T10:10:44.000Z,37.80
2023-03-28T10:12:48.932Z,37.80
2023-03-28T10:14:50.772Z,37.80
2023-03-28T10:16:52.500Z,37.70
2023-03-28T10:18:54.658Z,37.80
2023-03-28T10:20:56.585Z,37.70
2023-03-28T10:22:58.337Z,37.60
2023-03-28T10:25:00.679Z,37.70
2023-03-28T10:27:34.296Z,37.60
2023-03-28T10:29:37.102Z,37.60
2023-03-28T10:31:40.034Z,37.60
2023-03-28T10:33:46.247Z,37.50
2023-03-28T10:35:56.164Z,37.50
2023-03-28T10:38:03.548Z,37.50
2023-03-28T10:40:29.701Z,37.70
2023-03-28T10:42:45.175Z,37.70
2023-03-28T10:44:59.810Z,37.70
2023-03-28T10:47:18.218Z,37.90
2023-03-28T10:49:21.084Z,37.60
2023-03-28T10:51:24.798Z,37.50
2023-03-28T10:53:52.756Z,37.50
2023-03-28T10:56:14.164Z,37.50
2023-03-28T10:58:41.348Z,37.40
2023-03-28T11:00:55.578Z,37.50
2023-03-28T11:03:32.443Z,37.60
2023-03-28T11:05:55.016Z,37.60
2023-03-28T11:08:19.478Z,37.50
2023-03-28T11:10:48.593Z,37.20
2023-03-28T11:13:04.302Z,37.10
2023-03-28T11:15:16.776Z,37.10
2023-03-28T11:17:46.039Z,37.10
2023-03-28T11:20:07.101Z,37.10
2023-03-28T11:22:16.435Z,35.90
2023-03-28T11:24:36.927Z,36.40
2023-03-28T11:27:12.386Z,36.60
2023-03-28T11:29:45.958Z,35.90
2023-03-28T11:32:02.944Z,34.50
2023-03-28T11:34:17.301Z,35.60
2023-03-28T11:36:33.827Z,35.00
2023-03-28T11:38:43.087Z,35.10
2023-03-28T11:41:04.486Z,35.80
2023-03-28T11:43:10.196Z,34.20
2023-03-28T11:45:12.102Z,32.90
2023-03-28T11:47:22.640Z,32.10
2023-03-28T11:49:35.338Z,31.00
2023-03-28T11:52:01.116Z,34.50
2023-03-28T11:54:17.540Z,34.70
2023-03-28T11:56:56.736Z,36.90
2023-03-28T11:59:06.243Z,37.90
2023-03-28T12:01:28.753Z,40.30
2023-03-28T12:03:42.894Z,42.60
2023-03-28T12:06:02.609Z,44.20
2023-03-28T12:08:12.416Z,44.50
2023-03-28T12:10:17.321Z,44.40
2023-03-28T12:12:50.823Z,44.50
2023-03-28T12:15:14.226Z,45.00
2023-03-28T12:17:26.879Z,43.90
2023-03-28T12:19:37.830Z,44.00
2023-03-28T12:21:45.898Z,45.00
2023-03-28T12:24:35.438Z,44.00
2023-03-28T12:27:14.710Z,44.40
2023-03-28T12:29:25.546Z,44.10
2023-03-28T12:31:49.608Z,43.50
2023-03-28T12:34:16.194Z,42.90
2023-03-28T12:36:41.187Z,42.70
2023-03-28T12:38:55.602Z,42.70
2023-03-28T12:41:02.317Z,42.50
2023-03-28T12:43:06.250Z,42.50
2023-03-28T12:45:14.550Z,42.40
2023-03-28T12:47:22.199Z,42.50
2023-03-28T12:49:37.098Z,42.20
2023-03-28T12:51:46.740Z,42.10
2023-03-28T12:54:21.163Z,42.80
2023-03-28T12:56:22.849Z,42.30
2023-03-28T12:58:26.614Z,42.20
2023-03-28T13:00:35.450Z,41.90
2023-03-28T13:02:52.377Z,41.70
2023-03-28T13:05:16.266Z,41.50
2023-03-28T13:07:28.687Z,41.30
2023-03-28T13:09:39.173Z,34.20
2023-03-28T13:11:49.264Z,33.90
2023-03-28T13:13:59.054Z,30.10
2023-03-28T13:16:06.007Z,29.80
2023-03-28T13:18:22.422Z,31.60
2023-03-28T13:20:27.662Z,32.60
2023-03-28T13:22:58.352Z,33.40
2023-03-28T13:25:29.673Z,33.90
2023-03-28T13:27:33.279Z,34.40
2023-03-28T13:29:58.433Z,35.00
2023-03-28T13:32:04.131Z,35.10
2023-03-28T13:34:05.845Z,35.40
2023-03-28T13:36:10.634Z,35.60
2023-03-28T13:38:27.987Z,35.90
2023-03-28T13:40:50.580Z,36.10
2023-03-28T13:42:59.695Z,36.20
2023-03-28T13:45:16.638Z,36.20
2023-03-28T13:47:28.773Z,36.30
2023-03-28T13:49:30.402Z,36.30
2023-03-28T13:51:39.489Z,36.30
2023-03-28T13:53:47.474Z,36.40
2023-03-28T13:56:23.281Z,36.50
2023-03-28T13:58:25.148Z,36.50
2023-03-28T14:00:28.797Z,36.60
2023-03-28T14:03:04.254Z,36.60
2023-03-28T14:05:22.305Z,36.70
2023-03-28T14:07:28.397Z,36.80
2023-03-28T14:09:34.870Z,36.80
2023-03-28T14:11:38.088Z,36.90
2023-03-28T14:13:39.825Z,36.90
2023-03-28T14:15:43.533Z,37.00
2023-03-28T14:17:45.289Z,37.00
2023-03-28T14:19:57.071Z,37.10
2023-03-28T14:21:59.186Z,37.10
2023-03-28T14:24:04.703Z,37.10
2023-03-28T14:26:22.075Z,37.20
2023-03-28T14:28:29.179Z,37.30
2023-03-28T14:30:37.719Z,37.20
2023-03-28T14:32:54.521Z,37.30
2023-03-28T14:35:22.520Z,37.40
2023-03-28T14:37:24.934Z,37.40
2023-03-28T14:39:29.288Z,37.40
2023-03-28T14:41:34.066Z,37.40
2023-03-28T14:43:36.698Z,37.40
2023-03-28T14:45:42.470Z,37.50
2023-03-28T14:47:44.386Z,37.50
2023-03-28T14:49:46.893Z,37.50
2023-03-28T14:51:54.873Z,37.50
2023-03-28T14:53:56.809Z,37.50
2023-03-28T14:56:05.334Z,37.50
2023-03-28T14:58:12.642Z,37.50
2023-03-28T15:00:19.201Z,37.50
2023-03-28T15:02:28.013Z,37.60
2023-03-28T15:04:32.109Z,37.60
2023-03-28T15:06:35.332Z,37.60
2023-03-28T15:08:38.662Z,37.60
2023-03-28T15:10:49.274Z,37.60
2023-03-28T15:13:01.353Z,37.60
2023-03-28T15:15:04.176Z,37.60
2023-03-28T15:17:06.174Z,37.60
2023-03-28T15:19:34.336Z,37.60
2023-03-28T15:21:38.193Z,37.80
2023-03-28T15:23:55.734Z,38.00
2023-03-28T15:26:01.613Z,38.00
2023-03-28T15:28:06.457Z,38.00
2023-03-28T15:30:20.752Z,38.00
2023-03-28T15:32:22.560Z,38.00
2023-03-28T15:34:28.757Z,38.20
2023-03-28T15:36:34.810Z,38.30
2023-03-28T15:38:40.648Z,38.50
2023-03-28T15:40:50.718Z,38.50
2023-03-28T15:42:52.445Z,38.60
2023-03-28T15:44:56.824Z,39.00
2023-03-28T15:47:04.742Z,39.30
2023-03-28T15:49:07.397Z,38.70
2023-03-28T15:51:16.462Z,38.80
2023-03-28T15:53:19.137Z,38.80
2023-03-28T15:55:22.834Z,38.80
2023-03-28T15:57:28.220Z,38.90
2023-03-28T15:59:35.944Z,38.90
2023-03-28T16:01:37.791Z,38.90
2023-03-28T16:03:39.656Z,38.90
2023-03-28T16:05:47.100Z,39.00
2023-03-28T16:07:50.731Z,39.00
2023-03-28T16:09:52.644Z,39.00
2023-03-28T16:12:03.012Z,39.00
2023-03-28T16:14:04.729Z,38.70
2023-03-28T16:16:07.300Z,38.70
2023-03-28T16:18:09.259Z,35.80
2023-03-28T16:20:16.427Z,34.50
2023-03-28T16:22:18.148Z,35.40
2023-03-28T16:24:20.241Z,36.50
2023-03-28T16:26:22.018Z,37.50
2023-03-28T16:28:23.644Z,38.10
2023-03-28T16:30:33.639Z,38.40
2023-03-28T16:32:35.340Z,38.70
2023-03-28T16:34:37.011Z,39.00
2023-03-28T16:36:39.050Z,39.10
2023-03-28T16:38:40.799Z,39.00
2023-03-28T16:40:42.922Z,39.10
2023-03-28T16:42:44.643Z,39.30
2023-03-28T16:44:46.241Z,39.30
2023-03-28T16:46:47.861Z,39.20
2023-03-28T16:48:49.485Z,40.00
2023-03-28T16:50:59.209Z,39.40
2023-03-28T16:53:02.246Z,39.40
2023-03-28T16:55:04.493Z,39.60
2023-03-28T16:57:06.514Z,39.40
2023-03-28T16:59:08.310Z,39.30
2023-03-28T17:01:18.784Z,39.70
2023-03-28T17:03:22.544Z,39.40
2023-03-28T17:05:24.559Z,39.50
2023-03-28T17:07:26.807Z,39.60
2023-03-28T17:09:28.545Z,39.60
2023-03-28T17:11:31.301Z,39.70
2023-03-28T17:13:34.253Z,39.60
2023-03-28T17:15:36.295Z,40.30
2023-03-28T17:17:38.388Z,39.70
2023-03-28T17:19:40.324Z,39.50
2023-03-28T17:21:42.008Z,39.70
2023-03-28T17:23:45.301Z,39.60
2023-03-28T17:25:54.849Z,39.70
2023-03-28T17:27:56.758Z,39.70
2023-03-28T17:29:58.428Z,39.80
2023-03-28T17:32:00.182Z,40.10
2023-03-28T17:34:01.931Z,40.10
2023-03-28T17:36:33.110Z,40.20
2023-03-28T17:38:34.767Z,39.90
2023-03-28T17:40:37.224Z,39.70
2023-03-28T17:42:38.986Z,39.70
2023-03-28T17:44:40.590Z,39.60
2023-03-28T17:46:42.715Z,39.60
2023-03-28T17:48:44.436Z,39.60
2023-03-28T17:50:53.676Z,39.50
2023-03-28T17:52:55.437Z,39.70
2023-03-28T17:54:58.015Z,39.80
2023-03-28T17:56:59.664Z,39.70
2023-03-28T17:59:01.395Z,39.80
2023-03-28T18:01:04.144Z,39.70
2023-03-28T18:03:06.478Z,39.80
2023-03-28T18:05:08.397Z,39.90
2023-03-28T18:07:16.093Z,39.90
2023-03-28T18:09:18.446Z,39.80
2023-03-28T18:11:20.320Z,39.90
2023-03-28T18:13:22.004Z,39.90
2023-03-28T18:15:24.082Z,39.70
2023-03-28T18:17:25.788Z,39.60
2023-03-28T18:19:27.633Z,40.30
2023-03-28T18:21:29.325Z,39.50
2023-03-28T18:23:31.826Z,39.70
2023-03-28T18:25:37.081Z,39.70
2023-03-28T18:27:38.702Z,39.60
2023-03-28T18:29:40.424Z,39.70
2023-03-28T18:31:42.495Z,39.80
2023-03-28T18:33:45.273Z,39.90
2023-03-28T18:35:47.055Z,40.10
2023-03-28T18:37:48.722Z,40.10
2023-03-28T18:39:50.417Z,40.10
2023-03-28T18:41:52.192Z,40.00
2023-03-28T18:43:53.887Z,40.40
2023-03-28T18:45:56.013Z,40.50
2023-03-28T18:47:57.742Z,40.30
2023-03-28T18:49:59.408Z,40.30
2023-03-28T18:52:06.895Z,40.40
2023-03-28T18:54:09.045Z,40.50
2023-03-28T18:56:12.223Z,40.60
2023-03-28T18:58:14.000Z,40.50
2023-03-28T19:00:19.026Z,40.50
2023-03-28T19:02:21.775Z,40.50
2023-03-28T19:04:24.593Z,40.60
2023-03-28T19:06:26.334Z,40.70
2023-03-28T19:08:29.685Z,40.70
2023-03-28T19:10:31.434Z,40.70
2023-03-28T19:12:36.448Z,40.70
2023-03-28T19:14:38.748Z,40.70
2023-03-28T19:16:40.427Z,40.60
2023-03-28T19:18:43.853Z,40.70
2023-03-28T19:20:50.229Z,40.60
2023-03-28T19:22:52.211Z,40.60
2023-03-28T19:24:53.890Z,40.70
2023-03-28T19:26:57.035Z,40.70
2023-03-28T19:29:00.717Z,40.80
2023-03-28T19:31:05.259Z,40.90
2023-03-28T19:33:07.391Z,40.80
2023-03-28T19:35:09.492Z,40.80
2023-03-28T19:37:11.142Z,40.80
2023-03-28T19:39:13.379Z,40.80
2023-03-28T19:41:18.845Z,40.80
2023-03-28T19:43:23.674Z,41.10
2023-03-28T19:45:26.283Z,41.70
2023-03-28T19:47:28.019Z,41.90
2023-03-28T19:49:29.694Z,41.70
2023-03-28T19:51:31.960Z,42.00
2023-03-28T19:53:33.712Z,42.00
2023-03-28T19:55:35.652Z,41.80
2023-03-28T19:57:37.533Z,41.70
2023-03-28T19:59:39.181Z,41.80
2023-03-28T20:01:40.895Z,41.70
2023-03-28T20:03:42.672Z,41.90
2023-03-28T20:05:45.943Z,41.70
2023-03-28T20:07:47.635Z,41.80
2023-03-28T20:09:49.321Z,41.80
2023-03-28T20:11:51.214Z,41.80
2023-03-28T20:13:52.817Z,41.80
2023-03-28T20:15:54.686Z,41.80
2023-03-28T20:17:56.432Z,41.90
2023-03-28T20:19:58.127Z,41.80
2023-03-28T20:21:59.883Z,41.80
2023-03-28T20:24:01.540Z,41.90
2023-03-28T20:26:21.573Z,41.90
2023-03-28T20:28:24.920Z,41.80
2023-03-28T20:30:26.677Z,41.90
2023-03-28T20:32:28.416Z,41.70
2023-03-28T20:34:30.430Z,41.70
2023-03-28T20:36:35.076Z,41.70
2023-03-28T20:38:36.811Z,41.80
2023-03-28T20:40:41.341Z,41.80
2023-03-28T20:42:42.981Z,41.70
2023-03-28T20:44:44.749Z,41.90
2023-03-28T20:46:48.835Z,41.80
2023-03-28T20:48:56.828Z,41.70
2023-03-28T20:51:02.649Z,41.80
2023-03-28T20:53:05.894Z,41.70
2023-03-28T20:55:08.318Z,41.80
2023-03-28T20:57:10.019Z,41.70
2023-03-28T20:59:12.425Z,41.90
2023-03-28T21:01:16.457Z,42.00
2023-03-28T21:03:18.364Z,41.90
2023-03-28T21:05:24.916Z,41.90
2023-03-28T21:07:26.671Z,42.10
2023-03-28T21:09:28.500Z,42.30
2023-03-28T21:11:32.377Z,42.20
2023-03-28T21:13:34.068Z,42.80
2023-03-28T21:15:36.208Z,42.20
2023-03-28T21:17:38.826Z,42.20
2023-03-28T21:19:40.579Z,42.20
2023-03-28T21:21:42.202Z,42.40
2023-03-28T21:23:44.782Z,42.40
2023-03-28T21:25:48.792Z,42.50
2023-03-28T21:27:50.545Z,42.50
2023-03-28T21:29:52.573Z,42.40
2023-03-28T21:31:54.273Z,42.40
2023-03-28T21:33:57.434Z,42.50
2023-03-28T21:35:59.414Z,42.50
2023-03-28T21:38:01.228Z,42.50
2023-03-28T21:40:06.528Z,42.60
2023-03-28T21:42:08.156Z,42.60
2023-03-28T21:44:09.782Z,42.70
2023-03-28T21:46:11.701Z,42.60
2023-03-28T21:48:13.852Z,42.70
2023-03-28T21:50:16.532Z,42.70
2023-03-28T21:52:18.324Z,42.80
2023-03-28T21:54:20.062Z,42.70
2023-03-28T21:56:22.956Z,42.70
2023-03-28T21:58:25.904Z,42.70
2023-03-28T22:00:28.449Z,42.60
2023-03-28T22:02:30.142Z,42.70
2023-03-28T22:04:32.079Z,42.70
2023-03-28T22:06:33.710Z,42.80
2023-03-28T22:08:35.518Z,42.80
2023-03-28T22:10:37.680Z,42.70
2023-03-28T22:12:39.358Z,42.80
2023-03-28T22:14:41.240Z,42.80
2023-03-28T22:16:42.858Z,42.80
2023-03-28T22:18:49.481Z,42.80
2023-03-28T22:20:54.813Z,42.90
2023-03-28T22:23:00.541Z,42.90
2023-03-28T22:25:03.940Z,42.90
2023-03-28T22:27:05.888Z,42.80
2023-03-28T22:29:08.020Z,42.80
2023-03-28T22:31:10.028Z,42.80
2023-03-28T22:33:13.477Z,42.90
2023-03-28T22:35:15.230Z,42.90
2023-03-28T22:37:16.848Z,42.90
2023-03-28T22:39:18.778Z,42.90
2023-03-28T22:41:21.168Z,42.90
2023-03-28T22:43:24.947Z,42.80
2023-03-28T22:45:26.729Z,43.70
2023-03-28T22:47:30.200Z,43.00
2023-03-28T22:49:34.056Z,43.10
2023-03-28T22:51:46.138Z,43.10
2023-03-28T22:53:47.904Z,43.10
2023-03-28T22:55:49.653Z,43.00
2023-03-28T22:57:52.508Z,43.00
2023-03-28T22:59:56.172Z,43.10
2023-03-28T23:01:58.602Z,43.00
2023-03-28T23:04:00.474Z,43.00
2023-03-28T23:06:06.043Z,43.00
2023-03-28T23:08:07.910Z,43.00
2023-03-28T23:10:14.403Z,43.00
2023-03-28T23:12:16.132Z,42.90
2023-03-28T23:14:17.777Z,42.90
2023-03-28T23:16:19.529Z,42.90
2023-03-28T23:18:21.176Z,42.90
2023-03-28T23:20:22.837Z,42.90
2023-03-28T23:22:24.490Z,42.90
2023-03-28T23:24:30.081Z,42.90
2023-03-28T23:26:31.903Z,42.80
2023-03-28T23:28:33.858Z,42.90
2023-03-28T23:30:35.450Z,42.80
2023-03-28T23:32:37.506Z,42.80
2023-03-28T23:34:40.235Z,42.90
2023-03-28T23:36:42.391Z,42.80
2023-03-28T23:38:44.050Z,42.80
2023-03-28T23:40:46.305Z,42.80
2023-03-28T23:42:47.949Z,42.80
2023-03-28T23:44:49.822Z,42.70
2023-03-28T23:46:51.490Z,42.80
2023-03-28T23:48:53.121Z,42.70
2023-03-28T23:50:54.696Z,42.80
2023-03-28T23:52:56.371Z,42.80
2023-03-28T23:54:58.099Z,42.70
2023-03-28T23:56:59.763Z,42.90
2023-03-28T23:59:01.495Z,42.80
